Airfield :
LOGIN :

Register | Disclaimer

   EN    FR    IT 

 










Legend :    VFR   Marginal VFR   IFR   Intensive IFR   Very Intensive IFR
Visi :
Ceiling :
>= 8 km
>= 3000ft
5 to 8 km
1000 to 3000 ft
1500m to 5 km
500 to 1000 ft
800 to 1500m
200 to 500 ft
< 800m
< 200 ft
Symbols :   Thunderstorms  Fog  Heavy snow  Heavy precipitations  Wind > 20 kt
SIGMETs :     Misc.  Thunderstorms  Icing  Turbulence  Mountain Waves  Volcanic Ashes






- Airport Elevation : 7 ft
- IATA code : VCE


LIPZ - Marco Polo Int. Venezia

CURRENT METAR :
  • 160420Z 35004KT 280V020 CAVOK 12/11 Q1007 NOSIG

EXPIRED METARs :
  • 160350Z 05001KT CAVOK 13/11 Q1007 NOSIG
  • 160320Z 01002KT CAVOK 13/11 Q1007 NOSIG
  • 160250Z 33003KT CAVOK 13/11 Q1007 NOSIG
  • 160220Z 34005KT CAVOK 13/11 Q1007 NOSIG
  • 160150Z 28008KT 230V360 CAVOK 15/11 Q1006 NOSIG

TAF TAF LIPZ
Valid from the 16 at 00:00 until the 17 at 06:00 UTC


152300Z 1600/1706 VRB05KT 9999 SCT050
BECMG 1611/1613 16010KT
BECMG 1616/1618 23007KT
TEMPO 1616/1621 RA



MET'MAP, your aeronautical weather chart ! - Copyright ORBIFLY December 2007 - Disclaimer

ORBIFLY MET'MAP TEAM :

Programming & Development : Alexandra Zaïnal
Concept & original design : Baudouin d'Aumeries
Assistance for programming : Marc-Olivier Méhu
Technical & hardware support : Manuel Goepfert

Contact : metmap@orbifly.com




SOURCES & CREDITS :

   NOAA